sensor_id;sensor_type;location;lat;lon;timestamp;P1;durP1;ratioP1;P2;durP2;ratioP2
40609;SDS011;26316;55.976;37.140;2022-10-16T00:00:38;10.75;;;5.78;;
40609;SDS011;26316;55.976;37.140;2022-10-16T00:03:05;8.57;;;5.82;;
40609;SDS011;26316;55.976;37.140;2022-10-16T00:05:32;7.65;;;5.75;;
40609;SDS011;26316;55.976;37.140;2022-10-16T00:07:58;9.77;;;5.90;;
40609;SDS011;26316;55.976;37.140;2022-10-16T00:10:23;11.30;;;6.28;;
40609;SDS011;26316;55.976;37.140;2022-10-16T00:12:49;7.60;;;5.72;;
40609;SDS011;26316;55.976;37.140;2022-10-16T00:15:15;7.25;;;5.45;;
40609;SDS011;26316;55.976;37.140;2022-10-16T00:17:41;7.82;;;5.78;;
40609;SDS011;26316;55.976;37.140;2022-10-16T00:20:07;9.73;;;6.10;;
40609;SDS011;26316;55.976;37.140;2022-10-16T00:22:52;8.35;;;5.88;;
40609;SDS011;26316;55.976;37.140;2022-10-16T00:25:18;9.40;;;6.18;;
40609;SDS011;26316;55.976;37.140;2022-10-16T00:27:43;10.00;;;6.03;;
40609;SDS011;26316;55.976;37.140;2022-10-16T00:30:09;8.85;;;6.07;;
40609;SDS011;26316;55.976;37.140;2022-10-16T00:32:35;10.13;;;5.95;;
40609;SDS011;26316;55.976;37.140;2022-10-16T00:35:01;8.55;;;5.85;;
40609;SDS011;26316;55.976;37.140;2022-10-16T00:37:29;7.97;;;5.15;;
40609;SDS011;26316;55.976;37.140;2022-10-16T00:39:54;8.38;;;6.13;;
40609;SDS011;26316;55.976;37.140;2022-10-16T00:42:21;10.63;;;5.30;;
40609;SDS011;26316;55.976;37.140;2022-10-16T00:47:39;8.65;;;5.63;;
40609;SDS011;26316;55.976;37.140;2022-10-16T00:52:34;9.85;;;5.60;;
40609;SDS011;26316;55.976;37.140;2022-10-16T00:55:00;7.53;;;4.80;;
40609;SDS011;26316;55.976;37.140;2022-10-16T00:57:28;7.43;;;5.07;;
40609;SDS011;26316;55.976;37.140;2022-10-16T00:59:55;8.70;;;5.45;;
40609;SDS011;26316;55.976;37.140;2022-10-16T01:02:21;7.78;;;5.60;;
40609;SDS011;26316;55.976;37.140;2022-10-16T01:04:48;7.82;;;5.47;;
40609;SDS011;26316;55.976;37.140;2022-10-16T01:09:52;8.77;;;5.80;;
40609;SDS011;26316;55.976;37.140;2022-10-16T01:20:30;9.98;;;5.47;;
40609;SDS011;26316;55.976;37.140;2022-10-16T01:28:03;12.02;;;5.40;;
40609;SDS011;26316;55.976;37.140;2022-10-16T01:30:30;9.32;;;5.35;;
40609;SDS011;26316;55.976;37.140;2022-10-16T01:35:48;7.68;;;5.03;;
40609;SDS011;26316;55.976;37.140;2022-10-16T01:41:08;13.85;;;5.40;;
40609;SDS011;26316;55.976;37.140;2022-10-16T01:43:38;6.88;;;5.05;;
40609;SDS011;26316;55.976;37.140;2022-10-16T01:46:06;6.47;;;5.00;;
40609;SDS011;26316;55.976;37.140;2022-10-16T01:48:33;9.75;;;4.90;;
40609;SDS011;26316;55.976;37.140;2022-10-16T01:51:01;9.73;;;5.10;;
40609;SDS011;26316;55.976;37.140;2022-10-16T01:53:30;7.53;;;4.97;;
40609;SDS011;26316;55.976;37.140;2022-10-16T01:55:57;7.25;;;5.10;;
40609;SDS011;26316;55.976;37.140;2022-10-16T01:58:23;6.95;;;4.70;;
40609;SDS011;26316;55.976;37.140;2022-10-16T02:00:51;10.30;;;5.80;;
40609;SDS011;26316;55.976;37.140;2022-10-16T02:03:18;7.60;;;5.13;;
40609;SDS011;26316;55.976;37.140;2022-10-16T02:05:46;7.13;;;5.53;;
40609;SDS011;26316;55.976;37.140;2022-10-16T02:08:14;8.55;;;5.07;;
40609;SDS011;26316;55.976;37.140;2022-10-16T02:10:40;7.80;;;5.40;;
40609;SDS011;26316;55.976;37.140;2022-10-16T02:13:08;10.27;;;5.53;;
40609;SDS011;26316;55.976;37.140;2022-10-16T02:15:56;11.43;;;5.88;;
40609;SDS011;26316;55.976;37.140;2022-10-16T02:18:21;8.35;;;5.05;;
40609;SDS011;26316;55.976;37.140;2022-10-16T02:20:50;8.80;;;5.55;;
40609;SDS011;26316;55.976;37.140;2022-10-16T02:23:28;8.18;;;5.60;;
40609;SDS011;26316;55.976;37.140;2022-10-16T02:25:59;11.75;;;4.90;;
40609;SDS011;26316;55.976;37.140;2022-10-16T02:28:27;7.22;;;4.97;;
40609;SDS011;26316;55.976;37.140;2022-10-16T02:31:00;11.80;;;5.45;;
40609;SDS011;26316;55.976;37.140;2022-10-16T02:33:28;8.82;;;4.82;;
40609;SDS011;26316;55.976;37.140;2022-10-16T02:35:56;6.40;;;5.00;;
40609;SDS011;26316;55.976;37.140;2022-10-16T02:38:22;12.10;;;5.40;;
40609;SDS011;26316;55.976;37.140;2022-10-16T02:40:49;5.70;;;4.38;;
40609;SDS011;26316;55.976;37.140;2022-10-16T02:43:15;9.88;;;4.88;;
40609;SDS011;26316;55.976;37.140;2022-10-16T02:45:41;11.80;;;5.72;;
40609;SDS011;26316;55.976;37.140;2022-10-16T02:48:07;11.75;;;5.55;;
40609;SDS011;26316;55.976;37.140;2022-10-16T02:50:33;11.02;;;5.32;;
40609;SDS011;26316;55.976;37.140;2022-10-16T02:52:59;9.55;;;4.97;;
40609;SDS011;26316;55.976;37.140;2022-10-16T02:55:24;7.57;;;5.30;;
40609;SDS011;26316;55.976;37.140;2022-10-16T02:57:51;7.88;;;5.25;;
40609;SDS011;26316;55.976;37.140;2022-10-16T03:00:17;9.52;;;4.75;;
40609;SDS011;26316;55.976;37.140;2022-10-16T03:02:43;6.95;;;5.05;;
40609;SDS011;26316;55.976;37.140;2022-10-16T03:05:09;9.98;;;5.00;;
40609;SDS011;26316;55.976;37.140;2022-10-16T03:07:35;7.65;;;5.47;;
40609;SDS011;26316;55.976;37.140;2022-10-16T03:10:01;8.30;;;5.53;;
40609;SDS011;26316;55.976;37.140;2022-10-16T03:12:28;10.23;;;5.72;;
40609;SDS011;26316;55.976;37.140;2022-10-16T03:14:57;6.65;;;4.75;;
40609;SDS011;26316;55.976;37.140;2022-10-16T03:17:23;8.07;;;5.18;;
40609;SDS011;26316;55.976;37.140;2022-10-16T03:19:49;7.85;;;4.97;;
40609;SDS011;26316;55.976;37.140;2022-10-16T03:22:15;9.45;;;5.85;;
40609;SDS011;26316;55.976;37.140;2022-10-16T03:24:41;8.55;;;5.30;;
40609;SDS011;26316;55.976;37.140;2022-10-16T03:27:06;7.72;;;5.00;;
40609;SDS011;26316;55.976;37.140;2022-10-16T03:29:32;10.68;;;5.43;;
40609;SDS011;26316;55.976;37.140;2022-10-16T03:31:58;8.02;;;5.22;;
40609;SDS011;26316;55.976;37.140;2022-10-16T03:34:24;6.35;;;4.50;;
40609;SDS011;26316;55.976;37.140;2022-10-16T03:36:50;8.07;;;4.90;;
40609;SDS011;26316;55.976;37.140;2022-10-16T03:39:16;7.72;;;4.60;;
40609;SDS011;26316;55.976;37.140;2022-10-16T03:41:42;7.47;;;5.25;;
40609;SDS011;26316;55.976;37.140;2022-10-16T03:44:08;8.73;;;4.72;;
40609;SDS011;26316;55.976;37.140;2022-10-16T03:46:34;6.68;;;4.57;;
40609;SDS011;26316;55.976;37.140;2022-10-16T03:48:59;6.32;;;4.75;;
40609;SDS011;26316;55.976;37.140;2022-10-16T03:51:25;5.97;;;4.90;;
40609;SDS011;26316;55.976;37.140;2022-10-16T03:53:51;6.18;;;4.60;;
40609;SDS011;26316;55.976;37.140;2022-10-16T03:56:16;7.53;;;4.80;;
40609;SDS011;26316;55.976;37.140;2022-10-16T03:58:42;6.82;;;4.55;;
40609;SDS011;26316;55.976;37.140;2022-10-16T04:01:08;7.55;;;4.43;;
40609;SDS011;26316;55.976;37.140;2022-10-16T04:03:33;6.18;;;4.25;;
40609;SDS011;26316;55.976;37.140;2022-10-16T04:05:59;13.07;;;4.68;;
40609;SDS011;26316;55.976;37.140;2022-10-16T04:08:25;7.68;;;4.40;;
40609;SDS011;26316;55.976;37.140;2022-10-16T04:10:51;6.35;;;3.95;;
40609;SDS011;26316;55.976;37.140;2022-10-16T04:13:16;7.13;;;5.15;;
40609;SDS011;26316;55.976;37.140;2022-10-16T04:15:42;6.40;;;4.50;;
40609;SDS011;26316;55.976;37.140;2022-10-16T04:18:10;8.38;;;4.68;;
40609;SDS011;26316;55.976;37.140;2022-10-16T04:20:36;7.00;;;4.35;;
40609;SDS011;26316;55.976;37.140;2022-10-16T04:23:01;8.38;;;4.18;;
40609;SDS011;26316;55.976;37.140;2022-10-16T04:25:27;6.80;;;4.88;;
40609;SDS011;26316;55.976;37.140;2022-10-16T04:27:53;7.65;;;4.45;;
40609;SDS011;26316;55.976;37.140;2022-10-16T04:30:20;5.65;;;4.10;;
40609;SDS011;26316;55.976;37.140;2022-10-16T04:32:50;5.40;;;3.97;;
40609;SDS011;26316;55.976;37.140;2022-10-16T04:35:17;9.57;;;4.75;;
40609;SDS011;26316;55.976;37.140;2022-10-16T04:37:43;8.32;;;5.18;;
40609;SDS011;26316;55.976;37.140;2022-10-16T04:40:09;7.32;;;4.55;;
40609;SDS011;26316;55.976;37.140;2022-10-16T04:42:35;4.95;;;4.32;;
40609;SDS011;26316;55.976;37.140;2022-10-16T04:45:01;7.38;;;4.38;;
40609;SDS011;26316;55.976;37.140;2022-10-16T04:47:28;5.57;;;4.28;;
40609;SDS011;26316;55.976;37.140;2022-10-16T04:49:54;7.75;;;4.18;;
40609;SDS011;26316;55.976;37.140;2022-10-16T04:52:20;6.53;;;4.20;;
40609;SDS011;26316;55.976;37.140;2022-10-16T04:54:46;6.88;;;4.20;;
40609;SDS011;26316;55.976;37.140;2022-10-16T04:57:12;6.53;;;4.03;;
40609;SDS011;26316;55.976;37.140;2022-10-16T04:59:38;7.32;;;4.25;;
40609;SDS011;26316;55.976;37.140;2022-10-16T05:02:03;9.00;;;4.22;;
40609;SDS011;26316;55.976;37.140;2022-10-16T05:04:29;8.68;;;4.30;;
40609;SDS011;26316;55.976;37.140;2022-10-16T05:06:55;7.28;;;4.38;;
40609;SDS011;26316;55.976;37.140;2022-10-16T05:09:21;5.88;;;3.92;;
40609;SDS011;26316;55.976;37.140;2022-10-16T05:11:46;8.82;;;4.32;;
40609;SDS011;26316;55.976;37.140;2022-10-16T05:14:12;5.68;;;3.70;;
40609;SDS011;26316;55.976;37.140;2022-10-16T05:16:38;6.40;;;4.00;;
40609;SDS011;26316;55.976;37.140;2022-10-16T05:19:04;7.18;;;4.25;;
40609;SDS011;26316;55.976;37.140;2022-10-16T05:21:29;5.07;;;3.90;;
40609;SDS011;26316;55.976;37.140;2022-10-16T05:23:55;5.78;;;3.85;;
40609;SDS011;26316;55.976;37.140;2022-10-16T05:26:21;7.00;;;3.90;;
40609;SDS011;26316;55.976;37.140;2022-10-16T05:28:47;8.00;;;4.47;;
40609;SDS011;26316;55.976;37.140;2022-10-16T05:31:12;6.72;;;3.92;;
40609;SDS011;26316;55.976;37.140;2022-10-16T05:33:38;7.72;;;4.00;;
40609;SDS011;26316;55.976;37.140;2022-10-16T05:36:05;5.00;;;3.63;;
40609;SDS011;26316;55.976;37.140;2022-10-16T05:38:33;6.13;;;4.13;;
40609;SDS011;26316;55.976;37.140;2022-10-16T05:40:59;5.65;;;3.28;;
40609;SDS011;26316;55.976;37.140;2022-10-16T05:43:26;10.35;;;4.07;;
40609;SDS011;26316;55.976;37.140;2022-10-16T05:45:56;6.85;;;3.90;;
40609;SDS011;26316;55.976;37.140;2022-10-16T05:48:25;7.65;;;3.40;;
40609;SDS011;26316;55.976;37.140;2022-10-16T05:51:04;5.35;;;3.63;;
40609;SDS011;26316;55.976;37.140;2022-10-16T05:53:32;6.05;;;3.30;;
40609;SDS011;26316;55.976;37.140;2022-10-16T05:55:59;5.38;;;3.42;;
40609;SDS011;26316;55.976;37.140;2022-10-16T05:58:27;5.78;;;3.42;;
40609;SDS011;26316;55.976;37.140;2022-10-16T06:00:58;6.30;;;3.90;;
40609;SDS011;26316;55.976;37.140;2022-10-16T06:03:28;6.53;;;3.78;;
40609;SDS011;26316;55.976;37.140;2022-10-16T06:05:54;6.10;;;3.35;;
40609;SDS011;26316;55.976;37.140;2022-10-16T06:08:21;5.97;;;4.05;;
40609;SDS011;26316;55.976;37.140;2022-10-16T06:10:48;6.95;;;3.55;;
40609;SDS011;26316;55.976;37.140;2022-10-16T06:13:14;6.53;;;3.45;;
40609;SDS011;26316;55.976;37.140;2022-10-16T06:15:41;7.70;;;4.13;;
40609;SDS011;26316;55.976;37.140;2022-10-16T06:18:08;6.95;;;3.67;;
40609;SDS011;26316;55.976;37.140;2022-10-16T06:20:34;5.78;;;3.13;;
40609;SDS011;26316;55.976;37.140;2022-10-16T06:23:00;5.15;;;3.05;;
40609;SDS011;26316;55.976;37.140;2022-10-16T06:25:26;8.00;;;4.07;;
40609;SDS011;26316;55.976;37.140;2022-10-16T06:27:52;6.00;;;3.47;;
40609;SDS011;26316;55.976;37.140;2022-10-16T06:30:18;9.88;;;4.07;;
40609;SDS011;26316;55.976;37.140;2022-10-16T06:32:44;8.93;;;3.92;;
40609;SDS011;26316;55.976;37.140;2022-10-16T06:35:09;4.40;;;3.50;;
40609;SDS011;26316;55.976;37.140;2022-10-16T06:37:35;6.10;;;3.45;;
40609;SDS011;26316;55.976;37.140;2022-10-16T06:40:01;8.68;;;3.30;;
40609;SDS011;26316;55.976;37.140;2022-10-16T06:42:29;4.72;;;3.55;;
40609;SDS011;26316;55.976;37.140;2022-10-16T06:44:55;6.13;;;4.07;;
40609;SDS011;26316;55.976;37.140;2022-10-16T06:47:21;9.38;;;4.10;;
40609;SDS011;26316;55.976;37.140;2022-10-16T06:49:47;5.60;;;4.03;;
40609;SDS011;26316;55.976;37.140;2022-10-16T06:52:12;11.05;;;4.18;;
40609;SDS011;26316;55.976;37.140;2022-10-16T06:54:38;8.60;;;3.45;;
40609;SDS011;26316;55.976;37.140;2022-10-16T06:57:04;6.40;;;3.92;;
40609;SDS011;26316;55.976;37.140;2022-10-16T06:59:30;4.60;;;3.40;;
40609;SDS011;26316;55.976;37.140;2022-10-16T07:01:55;3.88;;;3.53;;
40609;SDS011;26316;55.976;37.140;2022-10-16T07:04:21;3.30;;;2.90;;
40609;SDS011;26316;55.976;37.140;2022-10-16T07:06:47;4.95;;;3.97;;
40609;SDS011;26316;55.976;37.140;2022-10-16T07:09:12;11.50;;;4.05;;
40609;SDS011;26316;55.976;37.140;2022-10-16T07:11:39;6.38;;;4.03;;
40609;SDS011;26316;55.976;37.140;2022-10-16T07:14:05;5.47;;;3.58;;
40609;SDS011;26316;55.976;37.140;2022-10-16T07:16:44;6.10;;;3.55;;
40609;SDS011;26316;55.976;37.140;2022-10-16T07:19:10;5.63;;;3.45;;
40609;SDS011;26316;55.976;37.140;2022-10-16T07:21:37;8.25;;;3.30;;
40609;SDS011;26316;55.976;37.140;2022-10-16T07:24:07;4.18;;;3.53;;
40609;SDS011;26316;55.976;37.140;2022-10-16T07:26:36;6.80;;;4.68;;
40609;SDS011;26316;55.976;37.140;2022-10-16T07:29:11;3.78;;;3.08;;
40609;SDS011;26316;55.976;37.140;2022-10-16T07:31:38;5.28;;;3.10;;
40609;SDS011;26316;55.976;37.140;2022-10-16T07:34:05;5.80;;;3.38;;
40609;SDS011;26316;55.976;37.140;2022-10-16T07:36:30;6.65;;;3.45;;
40609;SDS011;26316;55.976;37.140;2022-10-16T07:38:58;6.38;;;3.55;;
40609;SDS011;26316;55.976;37.140;2022-10-16T07:41:24;7.07;;;3.28;;
40609;SDS011;26316;55.976;37.140;2022-10-16T07:43:53;6.10;;;3.70;;
40609;SDS011;26316;55.976;37.140;2022-10-16T07:46:20;16.08;;;3.70;;
40609;SDS011;26316;55.976;37.140;2022-10-16T07:48:47;8.27;;;3.53;;
40609;SDS011;26316;55.976;37.140;2022-10-16T07:51:14;7.85;;;3.45;;
40609;SDS011;26316;55.976;37.140;2022-10-16T07:53:42;12.48;;;4.35;;
40609;SDS011;26316;55.976;37.140;2022-10-16T07:56:08;7.80;;;3.60;;
40609;SDS011;26316;55.976;37.140;2022-10-16T07:58:34;13.90;;;5.05;;
40609;SDS011;26316;55.976;37.140;2022-10-16T08:01:06;11.05;;;4.15;;
40609;SDS011;26316;55.976;37.140;2022-10-16T08:03:34;7.28;;;3.40;;
40609;SDS011;26316;55.976;37.140;2022-10-16T08:06:00;6.28;;;3.58;;
40609;SDS011;26316;55.976;37.140;2022-10-16T08:08:26;6.75;;;3.50;;
40609;SDS011;26316;55.976;37.140;2022-10-16T08:10:52;8.65;;;3.67;;
40609;SDS011;26316;55.976;37.140;2022-10-16T08:13:18;7.28;;;4.15;;
40609;SDS011;26316;55.976;37.140;2022-10-16T08:15:44;8.55;;;3.90;;
40609;SDS011;26316;55.976;37.140;2022-10-16T08:18:11;6.40;;;3.70;;
40609;SDS011;26316;55.976;37.140;2022-10-16T08:20:38;8.90;;;4.18;;
40609;SDS011;26316;55.976;37.140;2022-10-16T08:23:04;7.72;;;4.00;;
40609;SDS011;26316;55.976;37.140;2022-10-16T08:25:30;6.05;;;3.55;;
40609;SDS011;26316;55.976;37.140;2022-10-16T08:27:56;6.05;;;3.88;;
40609;SDS011;26316;55.976;37.140;2022-10-16T08:30:23;6.22;;;4.20;;
40609;SDS011;26316;55.976;37.140;2022-10-16T08:32:49;6.82;;;4.85;;
40609;SDS011;26316;55.976;37.140;2022-10-16T08:35:15;10.00;;;4.47;;
40609;SDS011;26316;55.976;37.140;2022-10-16T08:37:41;8.43;;;4.38;;
40609;SDS011;26316;55.976;37.140;2022-10-16T08:40:13;5.15;;;4.28;;
40609;SDS011;26316;55.976;37.140;2022-10-16T08:50:44;3.92;;;2.83;;
40609;SDS011;26316;55.976;37.140;2022-10-16T08:53:14;5.78;;;3.10;;
40609;SDS011;26316;55.976;37.140;2022-10-16T08:55:48;4.72;;;3.50;;
40609;SDS011;26316;55.976;37.140;2022-10-16T08:58:16;7.15;;;3.25;;
40609;SDS011;26316;55.976;37.140;2022-10-16T09:00:51;5.78;;;3.30;;
40609;SDS011;26316;55.976;37.140;2022-10-16T09:19:57;3.95;;;2.78;;
40609;SDS011;26316;55.976;37.140;2022-10-16T09:22:25;5.30;;;2.97;;
40609;SDS011;26316;55.976;37.140;2022-10-16T09:27:20;4.53;;;2.58;;
40609;SDS011;26316;55.976;37.140;2022-10-16T09:29:45;6.05;;;3.20;;
40609;SDS011;26316;55.976;37.140;2022-10-16T09:32:12;7.10;;;2.75;;
40609;SDS011;26316;55.976;37.140;2022-10-16T09:34:42;7.57;;;3.08;;
40609;SDS011;26316;55.976;37.140;2022-10-16T09:39:50;3.80;;;2.80;;
40609;SDS011;26316;55.976;37.140;2022-10-16T09:42:17;6.60;;;2.70;;
40609;SDS011;26316;55.976;37.140;2022-10-16T09:44:47;4.57;;;2.65;;
40609;SDS011;26316;55.976;37.140;2022-10-16T09:47:15;7.15;;;2.38;;
40609;SDS011;26316;55.976;37.140;2022-10-16T09:49:59;2.90;;;2.60;;
40609;SDS011;26316;55.976;37.140;2022-10-16T09:52:31;5.18;;;2.67;;
40609;SDS011;26316;55.976;37.140;2022-10-16T09:54:59;5.85;;;2.95;;
40609;SDS011;26316;55.976;37.140;2022-10-16T09:57:28;4.60;;;2.13;;
40609;SDS011;26316;55.976;37.140;2022-10-16T09:59:56;5.43;;;2.50;;
40609;SDS011;26316;55.976;37.140;2022-10-16T10:02:28;3.67;;;2.22;;
40609;SDS011;26316;55.976;37.140;2022-10-16T10:04:55;3.47;;;2.60;;
40609;SDS011;26316;55.976;37.140;2022-10-16T10:07:28;3.65;;;2.67;;
40609;SDS011;26316;55.976;37.140;2022-10-16T10:10:00;6.57;;;2.38;;
40609;SDS011;26316;55.976;37.140;2022-10-16T10:12:28;4.38;;;2.53;;
40609;SDS011;26316;55.976;37.140;2022-10-16T10:15:07;6.15;;;2.83;;
40609;SDS011;26316;55.976;37.140;2022-10-16T10:17:49;3.47;;;2.10;;
40609;SDS011;26316;55.976;37.140;2022-10-16T10:22:59;4.15;;;2.30;;
40609;SDS011;26316;55.976;37.140;2022-10-16T10:31:24;3.10;;;2.33;;
40609;SDS011;26316;55.976;37.140;2022-10-16T10:34:16;3.25;;;2.17;;
40609;SDS011;26316;55.976;37.140;2022-10-16T10:39:57;2.78;;;2.20;;
40609;SDS011;26316;55.976;37.140;2022-10-16T10:42:31;3.53;;;2.40;;
40609;SDS011;26316;55.976;37.140;2022-10-16T11:02:05;3.35;;;2.53;;
40609;SDS011;26316;55.976;37.140;2022-10-16T11:07:15;7.82;;;2.72;;
40609;SDS011;26316;55.976;37.140;2022-10-16T11:12:18;6.47;;;2.60;;
40609;SDS011;26316;55.976;37.140;2022-10-16T11:22:52;4.45;;;2.75;;
40609;SDS011;26316;55.976;37.140;2022-10-16T11:25:29;5.53;;;3.13;;
40609;SDS011;26316;55.976;37.140;2022-10-16T11:46:25;9.10;;;2.85;;
40609;SDS011;26316;55.976;37.140;2022-10-16T11:49:08;5.13;;;3.13;;
40609;SDS011;26316;55.976;37.140;2022-10-16T11:51:39;6.60;;;3.20;;
40609;SDS011;26316;55.976;37.140;2022-10-16T11:57:31;3.90;;;2.78;;
40609;SDS011;26316;55.976;37.140;2022-10-16T12:05:32;4.57;;;2.85;;
40609;SDS011;26316;55.976;37.140;2022-10-16T12:10:33;10.20;;;3.10;;
40609;SDS011;26316;55.976;37.140;2022-10-16T12:13:26;8.77;;;2.80;;
40609;SDS011;26316;55.976;37.140;2022-10-16T12:16:03;4.43;;;2.95;;
40609;SDS011;26316;55.976;37.140;2022-10-16T12:18:33;5.32;;;3.60;;
40609;SDS011;26316;55.976;37.140;2022-10-16T12:20:59;7.25;;;3.33;;
40609;SDS011;26316;55.976;37.140;2022-10-16T12:26:24;5.38;;;3.13;;
40609;SDS011;26316;55.976;37.140;2022-10-16T12:28:51;5.43;;;3.03;;
40609;SDS011;26316;55.976;37.140;2022-10-16T12:31:17;5.85;;;2.90;;
40609;SDS011;26316;55.976;37.140;2022-10-16T12:37:06;3.63;;;2.47;;
40609;SDS011;26316;55.976;37.140;2022-10-16T12:39:48;4.70;;;2.65;;
40609;SDS011;26316;55.976;37.140;2022-10-16T12:42:22;3.95;;;2.85;;
40609;SDS011;26316;55.976;37.140;2022-10-16T12:44:56;6.70;;;2.88;;
40609;SDS011;26316;55.976;37.140;2022-10-16T12:47:23;5.55;;;2.85;;
40609;SDS011;26316;55.976;37.140;2022-10-16T12:50:01;4.65;;;2.95;;
40609;SDS011;26316;55.976;37.140;2022-10-16T12:52:37;5.70;;;3.00;;
40609;SDS011;26316;55.976;37.140;2022-10-16T12:55:04;5.15;;;2.72;;
40609;SDS011;26316;55.976;37.140;2022-10-16T13:00:45;3.08;;;2.78;;
40609;SDS011;26316;55.976;37.140;2022-10-16T13:06:14;5.38;;;3.50;;
40609;SDS011;26316;55.976;37.140;2022-10-16T13:22:29;5.35;;;3.33;;
40609;SDS011;26316;55.976;37.140;2022-10-16T13:30:34;5.55;;;3.75;;
40609;SDS011;26316;55.976;37.140;2022-10-16T13:33:06;7.55;;;3.65;;
40609;SDS011;26316;55.976;37.140;2022-10-16T13:35:45;5.55;;;4.05;;
40609;SDS011;26316;55.976;37.140;2022-10-16T13:38:13;5.10;;;3.70;;
40609;SDS011;26316;55.976;37.140;2022-10-16T13:43:19;7.32;;;5.05;;
40609;SDS011;26316;55.976;37.140;2022-10-16T13:45:54;8.05;;;4.63;;
40609;SDS011;26316;55.976;37.140;2022-10-16T13:48:21;9.32;;;4.72;;
40609;SDS011;26316;55.976;37.140;2022-10-16T13:50:57;6.55;;;5.07;;
40609;SDS011;26316;55.976;37.140;2022-10-16T13:53:26;8.35;;;5.75;;
40609;SDS011;26316;55.976;37.140;2022-10-16T13:55:52;9.23;;;5.60;;
40609;SDS011;26316;55.976;37.140;2022-10-16T13:58:18;9.13;;;5.88;;
40609;SDS011;26316;55.976;37.140;2022-10-16T14:00:53;10.20;;;6.40;;
40609;SDS011;26316;55.976;37.140;2022-10-16T14:03:20;10.90;;;6.05;;
40609;SDS011;26316;55.976;37.140;2022-10-16T14:05:47;11.05;;;5.43;;
40609;SDS011;26316;55.976;37.140;2022-10-16T14:08:17;8.50;;;5.50;;
40609;SDS011;26316;55.976;37.140;2022-10-16T14:10:46;6.57;;;5.43;;
40609;SDS011;26316;55.976;37.140;2022-10-16T14:13:16;7.07;;;5.65;;
40609;SDS011;26316;55.976;37.140;2022-10-16T14:18:14;7.78;;;5.22;;
40609;SDS011;26316;55.976;37.140;2022-10-16T14:20:45;7.18;;;4.65;;
40609;SDS011;26316;55.976;37.140;2022-10-16T14:23:23;6.68;;;4.82;;
40609;SDS011;26316;55.976;37.140;2022-10-16T14:28:38;11.02;;;5.55;;
40609;SDS011;26316;55.976;37.140;2022-10-16T14:31:22;8.63;;;6.57;;
40609;SDS011;26316;55.976;37.140;2022-10-16T14:33:49;6.55;;;5.05;;
40609;SDS011;26316;55.976;37.140;2022-10-16T14:36:15;6.07;;;4.97;;
40609;SDS011;26316;55.976;37.140;2022-10-16T14:41:26;7.22;;;5.13;;
40609;SDS011;26316;55.976;37.140;2022-10-16T14:43:56;7.97;;;5.15;;
40609;SDS011;26316;55.976;37.140;2022-10-16T14:46:36;9.77;;;4.65;;
40609;SDS011;26316;55.976;37.140;2022-10-16T14:51:54;9.70;;;3.60;;
40609;SDS011;26316;55.976;37.140;2022-10-16T14:54:20;10.07;;;3.55;;
40609;SDS011;26316;55.976;37.140;2022-10-16T14:59:20;6.70;;;3.38;;
40609;SDS011;26316;55.976;37.140;2022-10-16T15:01:57;7.63;;;3.92;;
40609;SDS011;26316;55.976;37.140;2022-10-16T15:04:23;10.98;;;3.45;;
40609;SDS011;26316;55.976;37.140;2022-10-16T15:06:48;5.97;;;3.40;;
40609;SDS011;26316;55.976;37.140;2022-10-16T15:09:14;4.65;;;3.63;;
40609;SDS011;26316;55.976;37.140;2022-10-16T15:11:41;9.73;;;4.35;;
40609;SDS011;26316;55.976;37.140;2022-10-16T15:14:08;14.93;;;4.68;;
40609;SDS011;26316;55.976;37.140;2022-10-16T15:16:36;6.95;;;4.70;;
40609;SDS011;26316;55.976;37.140;2022-10-16T15:19:02;11.02;;;4.40;;
40609;SDS011;26316;55.976;37.140;2022-10-16T15:21:28;12.82;;;4.20;;
40609;SDS011;26316;55.976;37.140;2022-10-16T15:23:55;10.20;;;4.90;;
40609;SDS011;26316;55.976;37.140;2022-10-16T15:26:23;6.53;;;4.13;;
40609;SDS011;26316;55.976;37.140;2022-10-16T15:28:49;9.23;;;4.90;;
40609;SDS011;26316;55.976;37.140;2022-10-16T15:31:15;7.30;;;4.55;;
40609;SDS011;26316;55.976;37.140;2022-10-16T15:33:41;9.10;;;4.85;;
40609;SDS011;26316;55.976;37.140;2022-10-16T15:36:12;6.50;;;4.60;;
40609;SDS011;26316;55.976;37.140;2022-10-16T15:38:38;13.18;;;4.88;;
40609;SDS011;26316;55.976;37.140;2022-10-16T15:41:04;5.85;;;4.10;;
40609;SDS011;26316;55.976;37.140;2022-10-16T15:43:30;5.63;;;4.50;;
40609;SDS011;26316;55.976;37.140;2022-10-16T15:45:59;7.50;;;5.05;;
40609;SDS011;26316;55.976;37.140;2022-10-16T15:48:31;10.80;;;4.43;;
40609;SDS011;26316;55.976;37.140;2022-10-16T15:50:57;6.80;;;4.43;;
40609;SDS011;26316;55.976;37.140;2022-10-16T15:53:23;7.75;;;4.45;;
40609;SDS011;26316;55.976;37.140;2022-10-16T15:55:49;7.65;;;5.28;;
40609;SDS011;26316;55.976;37.140;2022-10-16T15:58:15;7.00;;;4.32;;
40609;SDS011;26316;55.976;37.140;2022-10-16T16:00:40;7.55;;;4.60;;
40609;SDS011;26316;55.976;37.140;2022-10-16T16:03:07;6.53;;;4.78;;
40609;SDS011;26316;55.976;37.140;2022-10-16T16:05:42;7.05;;;4.80;;
40609;SDS011;26316;55.976;37.140;2022-10-16T16:08:10;9.25;;;4.38;;
40609;SDS011;26316;55.976;37.140;2022-10-16T16:10:38;5.25;;;4.13;;
40609;SDS011;26316;55.976;37.140;2022-10-16T16:13:04;8.75;;;4.93;;
40609;SDS011;26316;55.976;37.140;2022-10-16T16:15:30;9.43;;;4.45;;
40609;SDS011;26316;55.976;37.140;2022-10-16T16:17:55;17.50;;;7.32;;
40609;SDS011;26316;55.976;37.140;2022-10-16T16:20:22;65.68;;;19.48;;
40609;SDS011;26316;55.976;37.140;2022-10-16T16:22:48;134.32;;;36.55;;
40609;SDS011;26316;55.976;37.140;2022-10-16T16:25:14;184.63;;;51.63;;
40609;SDS011;26316;55.976;37.140;2022-10-16T16:27:40;190.43;;;53.08;;
40609;SDS011;26316;55.976;37.140;2022-10-16T16:30:06;168.40;;;46.17;;
40609;SDS011;26316;55.976;37.140;2022-10-16T16:32:33;111.55;;;32.10;;
40609;SDS011;26316;55.976;37.140;2022-10-16T16:35:00;71.50;;;24.67;;
40609;SDS011;26316;55.976;37.140;2022-10-16T16:37:28;64.00;;;19.45;;
40609;SDS011;26316;55.976;37.140;2022-10-16T16:39:54;47.72;;;15.25;;
40609;SDS011;26316;55.976;37.140;2022-10-16T16:42:24;31.63;;;12.23;;
40609;SDS011;26316;55.976;37.140;2022-10-16T16:44:51;32.75;;;11.63;;
40609;SDS011;26316;55.976;37.140;2022-10-16T16:47:16;26.75;;;10.02;;
40609;SDS011;26316;55.976;37.140;2022-10-16T16:49:42;27.52;;;10.02;;
40609;SDS011;26316;55.976;37.140;2022-10-16T16:52:08;20.40;;;8.65;;
40609;SDS011;26316;55.976;37.140;2022-10-16T16:54:34;20.65;;;8.73;;
40609;SDS011;26316;55.976;37.140;2022-10-16T16:56:59;23.10;;;8.25;;
40609;SDS011;26316;55.976;37.140;2022-10-16T16:59:25;15.45;;;7.57;;
40609;SDS011;26316;55.976;37.140;2022-10-16T17:01:51;13.02;;;7.90;;
40609;SDS011;26316;55.976;37.140;2022-10-16T17:04:17;19.90;;;7.63;;
40609;SDS011;26316;55.976;37.140;2022-10-16T17:06:48;14.70;;;7.50;;
40609;SDS011;26316;55.976;37.140;2022-10-16T17:09:14;17.58;;;8.07;;
40609;SDS011;26316;55.976;37.140;2022-10-16T17:11:40;11.70;;;6.65;;
40609;SDS011;26316;55.976;37.140;2022-10-16T17:14:09;10.98;;;6.28;;
40609;SDS011;26316;55.976;37.140;2022-10-16T17:16:36;11.35;;;7.43;;
40609;SDS011;26316;55.976;37.140;2022-10-16T17:19:04;13.27;;;7.22;;
40609;SDS011;26316;55.976;37.140;2022-10-16T17:21:35;14.10;;;5.63;;
40609;SDS011;26316;55.976;37.140;2022-10-16T17:24:01;12.45;;;6.72;;
40609;SDS011;26316;55.976;37.140;2022-10-16T17:26:28;10.52;;;6.60;;
40609;SDS011;26316;55.976;37.140;2022-10-16T17:28:55;12.10;;;6.82;;
40609;SDS011;26316;55.976;37.140;2022-10-16T17:31:25;14.02;;;6.07;;